sensor_id;sensor_type;location;lat;lon;timestamp;temperature;humidity
45906;DHT22;31619;49.008;12.106;2023-04-03T00:01:15;4.20;99.90
45906;DHT22;31619;49.008;12.106;2023-04-03T00:03:41;4.10;99.90
45906;DHT22;31619;49.008;12.106;2023-04-03T00:06:07;4.20;99.90
45906;DHT22;31619;49.008;12.106;2023-04-03T00:08:34;4.20;99.90
45906;DHT22;31619;49.008;12.106;2023-04-03T00:11:01;4.20;99.90
45906;DHT22;31619;49.008;12.106;2023-04-03T00:13:27;4.10;99.90
45906;DHT22;31619;49.008;12.106;2023-04-03T00:15:53;4.10;99.90
45906;DHT22;31619;49.008;12.106;2023-04-03T00:18:19;4.10;99.90
45906;DHT22;31619;49.008;12.106;2023-04-03T00:20:45;4.20;99.90
45906;DHT22;31619;49.008;12.106;2023-04-03T00:23:10;4.10;99.90
45906;DHT22;31619;49.008;12.106;2023-04-03T00:25:36;4.20;99.90
45906;DHT22;31619;49.008;12.106;2023-04-03T00:28:03;4.20;99.90
45906;DHT22;31619;49.008;12.106;2023-04-03T00:30:29;4.20;99.90
45906;DHT22;31619;49.008;12.106;2023-04-03T00:32:54;4.10;99.90
45906;DHT22;31619;49.008;12.106;2023-04-03T00:35:21;4.00;99.90
45906;DHT22;31619;49.008;12.106;2023-04-03T00:37:47;4.00;99.90
45906;DHT22;31619;49.008;12.106;2023-04-03T00:40:14;4.10;99.90
45906;DHT22;31619;49.008;12.106;2023-04-03T00:42:41;4.20;99.90
45906;DHT22;31619;49.008;12.106;2023-04-03T00:47:36;4.10;99.90
45906;DHT22;31619;49.008;12.106;2023-04-03T00:50:03;4.00;99.90
45906;DHT22;31619;49.008;12.106;2023-04-03T00:52:30;3.90;99.90
45906;DHT22;31619;49.008;12.106;2023-04-03T00:55:00;4.00;99.90
45906;DHT22;31619;49.008;12.106;2023-04-03T00:57:30;4.00;99.90
45906;DHT22;31619;49.008;12.106;2023-04-03T01:00:01;3.90;99.90
45906;DHT22;31619;49.008;12.106;2023-04-03T01:02:29;3.90;99.90
45906;DHT22;31619;49.008;12.106;2023-04-03T01:04:54;3.90;99.90
45906;DHT22;31619;49.008;12.106;2023-04-03T01:07:29;3.90;99.90
45906;DHT22;31619;49.008;12.106;2023-04-03T01:10:09;3.90;99.90
45906;DHT22;31619;49.008;12.106;2023-04-03T01:12:37;4.00;99.90
45906;DHT22;31619;49.008;12.106;2023-04-03T01:15:13;4.00;99.90
45906;DHT22;31619;49.008;12.106;2023-04-03T01:17:48;4.00;99.90
45906;DHT22;31619;49.008;12.106;2023-04-03T01:25:41;3.90;99.90
45906;DHT22;31619;49.008;12.106;2023-04-03T01:28:12;3.90;99.90
45906;DHT22;31619;49.008;12.106;2023-04-03T01:30:58;4.00;99.90
45906;DHT22;31619;49.008;12.106;2023-04-03T01:33:25;4.00;99.90
45906;DHT22;31619;49.008;12.106;2023-04-03T01:35:51;4.00;99.90
45906;DHT22;31619;49.008;12.106;2023-04-03T01:38:17;4.00;99.90
45906;DHT22;31619;49.008;12.106;2023-04-03T01:40:43;3.90;99.90
45906;DHT22;31619;49.008;12.106;2023-04-03T01:43:08;3.90;99.90
45906;DHT22;31619;49.008;12.106;2023-04-03T01:45:34;3.90;99.90
45906;DHT22;31619;49.008;12.106;2023-04-03T01:48:00;3.90;99.90
45906;DHT22;31619;49.008;12.106;2023-04-03T01:50:25;3.90;99.90
45906;DHT22;31619;49.008;12.106;2023-04-03T01:52:51;3.80;99.90
45906;DHT22;31619;49.008;12.106;2023-04-03T01:55:17;3.70;99.90
45906;DHT22;31619;49.008;12.106;2023-04-03T01:57:42;3.70;99.90
45906;DHT22;31619;49.008;12.106;2023-04-03T02:00:08;3.70;99.90
45906;DHT22;31619;49.008;12.106;2023-04-03T02:02:34;3.70;99.90
45906;DHT22;31619;49.008;12.106;2023-04-03T02:05:00;3.70;99.90
45906;DHT22;31619;49.008;12.106;2023-04-03T02:07:26;3.70;99.90
45906;DHT22;31619;49.008;12.106;2023-04-03T02:09:51;3.70;99.90
45906;DHT22;31619;49.008;12.106;2023-04-03T02:12:17;3.70;99.90
45906;DHT22;31619;49.008;12.106;2023-04-03T02:14:42;3.70;99.90
45906;DHT22;31619;49.008;12.106;2023-04-03T02:17:08;3.70;99.90
45906;DHT22;31619;49.008;12.106;2023-04-03T02:19:37;3.70;99.90
45906;DHT22;31619;49.008;12.106;2023-04-03T02:22:03;3.70;99.90
45906;DHT22;31619;49.008;12.106;2023-04-03T02:24:29;3.80;99.90
45906;DHT22;31619;49.008;12.106;2023-04-03T02:26:54;3.80;99.90
45906;DHT22;31619;49.008;12.106;2023-04-03T02:29:20;3.90;99.90
45906;DHT22;31619;49.008;12.106;2023-04-03T02:31:46;3.90;99.90
45906;DHT22;31619;49.008;12.106;2023-04-03T02:34:11;3.90;99.90
45906;DHT22;31619;49.008;12.106;2023-04-03T02:36:37;3.90;99.90
45906;DHT22;31619;49.008;12.106;2023-04-03T02:39:03;3.90;99.90
45906;DHT22;31619;49.008;12.106;2023-04-03T02:41:28;3.80;99.90
45906;DHT22;31619;49.008;12.106;2023-04-03T02:44:00;3.90;99.90
45906;DHT22;31619;49.008;12.106;2023-04-03T02:46:26;3.80;99.90
45906;DHT22;31619;49.008;12.106;2023-04-03T02:48:52;3.80;99.90
45906;DHT22;31619;49.008;12.106;2023-04-03T02:51:17;3.80;99.90
45906;DHT22;31619;49.008;12.106;2023-04-03T02:53:43;3.80;99.90
45906;DHT22;31619;49.008;12.106;2023-04-03T02:56:08;3.70;99.90
45906;DHT22;31619;49.008;12.106;2023-04-03T02:58:34;3.60;99.90
45906;DHT22;31619;49.008;12.106;2023-04-03T03:01:00;3.70;99.90
45906;DHT22;31619;49.008;12.106;2023-04-03T03:03:26;3.60;99.90
45906;DHT22;31619;49.008;12.106;2023-04-03T03:06:08;3.60;99.90
45906;DHT22;31619;49.008;12.106;2023-04-03T03:08:34;3.60;99.90
45906;DHT22;31619;49.008;12.106;2023-04-03T03:11:00;3.60;99.90
45906;DHT22;31619;49.008;12.106;2023-04-03T03:13:26;3.70;99.90
45906;DHT22;31619;49.008;12.106;2023-04-03T03:15:52;3.60;99.90
45906;DHT22;31619;49.008;12.106;2023-04-03T03:18:17;3.60;99.90
45906;DHT22;31619;49.008;12.106;2023-04-03T03:20:43;3.60;99.90
45906;DHT22;31619;49.008;12.106;2023-04-03T03:23:08;3.60;99.90
45906;DHT22;31619;49.008;12.106;2023-04-03T03:25:38;3.60;99.90
45906;DHT22;31619;49.008;12.106;2023-04-03T03:28:04;3.60;99.90
45906;DHT22;31619;49.008;12.106;2023-04-03T03:30:29;3.70;99.90
45906;DHT22;31619;49.008;12.106;2023-04-03T03:32:55;3.60;99.90
45906;DHT22;31619;49.008;12.106;2023-04-03T03:35:20;3.70;99.90
45906;DHT22;31619;49.008;12.106;2023-04-03T03:37:46;3.60;99.90
45906;DHT22;31619;49.008;12.106;2023-04-03T03:40:12;3.60;99.90
45906;DHT22;31619;49.008;12.106;2023-04-03T03:42:38;3.70;99.90
45906;DHT22;31619;49.008;12.106;2023-04-03T03:45:05;3.70;99.90
45906;DHT22;31619;49.008;12.106;2023-04-03T03:47:31;3.60;99.90
45906;DHT22;31619;49.008;12.106;2023-04-03T03:49:56;3.70;99.90
45906;DHT22;31619;49.008;12.106;2023-04-03T03:52:22;3.60;99.90
45906;DHT22;31619;49.008;12.106;2023-04-03T03:54:47;3.50;99.90
45906;DHT22;31619;49.008;12.106;2023-04-03T03:57:13;3.50;99.90
45906;DHT22;31619;49.008;12.106;2023-04-03T03:59:38;3.40;99.90
45906;DHT22;31619;49.008;12.106;2023-04-03T04:02:07;3.40;99.90
45906;DHT22;31619;49.008;12.106;2023-04-03T04:04:32;3.50;99.90
45906;DHT22;31619;49.008;12.106;2023-04-03T04:06:58;3.50;99.90
45906;DHT22;31619;49.008;12.106;2023-04-03T04:09:26;3.50;99.90
45906;DHT22;31619;49.008;12.106;2023-04-03T04:11:51;3.40;99.90
45906;DHT22;31619;49.008;12.106;2023-04-03T04:14:17;3.40;99.90
45906;DHT22;31619;49.008;12.106;2023-04-03T04:16:42;3.40;99.90
45906;DHT22;31619;49.008;12.106;2023-04-03T04:19:08;3.40;99.90
45906;DHT22;31619;49.008;12.106;2023-04-03T04:21:34;3.50;99.90
45906;DHT22;31619;49.008;12.106;2023-04-03T04:23:59;3.40;99.90
45906;DHT22;31619;49.008;12.106;2023-04-03T04:26:25;3.30;99.90
45906;DHT22;31619;49.008;12.106;2023-04-03T04:28:51;3.30;99.90
45906;DHT22;31619;49.008;12.106;2023-04-03T04:31:16;3.20;99.90
45906;DHT22;31619;49.008;12.106;2023-04-03T04:33:42;3.20;99.90
45906;DHT22;31619;49.008;12.106;2023-04-03T04:36:07;3.20;99.90
45906;DHT22;31619;49.008;12.106;2023-04-03T04:38:33;3.30;99.90
45906;DHT22;31619;49.008;12.106;2023-04-03T04:40:59;3.20;99.90
45906;DHT22;31619;49.008;12.106;2023-04-03T04:43:24;3.20;99.90
45906;DHT22;31619;49.008;12.106;2023-04-03T04:46:00;3.20;99.90
45906;DHT22;31619;49.008;12.106;2023-04-03T04:48:27;3.30;99.90
45906;DHT22;31619;49.008;12.106;2023-04-03T04:50:52;3.30;99.90
45906;DHT22;31619;49.008;12.106;2023-04-03T04:53:18;3.40;99.90
45906;DHT22;31619;49.008;12.106;2023-04-03T04:55:43;3.30;99.90
45906;DHT22;31619;49.008;12.106;2023-04-03T04:58:09;3.30;99.90
45906;DHT22;31619;49.008;12.106;2023-04-03T05:00:34;3.30;99.90
45906;DHT22;31619;49.008;12.106;2023-04-03T05:03:00;3.30;99.90
45906;DHT22;31619;49.008;12.106;2023-04-03T05:05:26;3.40;99.90
45906;DHT22;31619;49.008;12.106;2023-04-03T05:07:51;3.30;99.90
45906;DHT22;31619;49.008;12.106;2023-04-03T05:10:17;3.40;99.90
45906;DHT22;31619;49.008;12.106;2023-04-03T05:12:42;3.40;99.90
45906;DHT22;31619;49.008;12.106;2023-04-03T05:15:08;3.50;99.90
45906;DHT22;31619;49.008;12.106;2023-04-03T05:17:34;3.40;99.90
45906;DHT22;31619;49.008;12.106;2023-04-03T05:20:00;3.40;99.90
45906;DHT22;31619;49.008;12.106;2023-04-03T05:22:25;3.40;99.90
45906;DHT22;31619;49.008;12.106;2023-04-03T05:24:51;3.50;99.90
45906;DHT22;31619;49.008;12.106;2023-04-03T05:27:16;3.40;99.90
45906;DHT22;31619;49.008;12.106;2023-04-03T05:29:42;3.50;99.90
45906;DHT22;31619;49.008;12.106;2023-04-03T05:32:10;3.50;99.90
45906;DHT22;31619;49.008;12.106;2023-04-03T05:34:36;3.70;99.90
45906;DHT22;31619;49.008;12.106;2023-04-03T05:37:01;3.80;99.90
45906;DHT22;31619;49.008;12.106;2023-04-03T05:39:28;4.00;99.90
45906;DHT22;31619;49.008;12.106;2023-04-03T05:41:54;4.10;99.90
45906;DHT22;31619;49.008;12.106;2023-04-03T05:44:19;4.20;99.90
45906;DHT22;31619;49.008;12.106;2023-04-03T05:46:45;4.30;99.90
45906;DHT22;31619;49.008;12.106;2023-04-03T05:49:11;4.30;99.90
45906;DHT22;31619;49.008;12.106;2023-04-03T05:51:36;4.30;99.90
45906;DHT22;31619;49.008;12.106;2023-04-03T05:54:09;4.40;99.90
45906;DHT22;31619;49.008;12.106;2023-04-03T05:56:36;4.50;99.90
45906;DHT22;31619;49.008;12.106;2023-04-03T05:59:02;4.50;99.90
45906;DHT22;31619;49.008;12.106;2023-04-03T06:01:27;4.60;99.90
45906;DHT22;31619;49.008;12.106;2023-04-03T06:03:53;4.70;99.90
45906;DHT22;31619;49.008;12.106;2023-04-03T06:06:19;4.80;99.90
45906;DHT22;31619;49.008;12.106;2023-04-03T06:08:45;4.90;99.90
45906;DHT22;31619;49.008;12.106;2023-04-03T06:11:11;4.90;99.90
45906;DHT22;31619;49.008;12.106;2023-04-03T06:13:37;5.00;99.90
45906;DHT22;31619;49.008;12.106;2023-04-03T06:16:02;5.10;99.90
45906;DHT22;31619;49.008;12.106;2023-04-03T06:18:29;5.30;99.90
45906;DHT22;31619;49.008;12.106;2023-04-03T06:20:55;5.30;99.90
45906;DHT22;31619;49.008;12.106;2023-04-03T06:23:20;5.40;99.90
45906;DHT22;31619;49.008;12.106;2023-04-03T06:25:46;5.50;99.90
45906;DHT22;31619;49.008;12.106;2023-04-03T06:28:12;5.50;99.90
45906;DHT22;31619;49.008;12.106;2023-04-03T06:30:38;5.60;99.90
45906;DHT22;31619;49.008;12.106;2023-04-03T06:33:03;5.70;99.90
45906;DHT22;31619;49.008;12.106;2023-04-03T06:35:29;5.60;99.90
45906;DHT22;31619;49.008;12.106;2023-04-03T06:37:55;5.70;99.90
45906;DHT22;31619;49.008;12.106;2023-04-03T06:40:23;5.80;99.90
45906;DHT22;31619;49.008;12.106;2023-04-03T06:42:50;5.80;99.90
45906;DHT22;31619;49.008;12.106;2023-04-03T06:45:16;5.90;99.90
45906;DHT22;31619;49.008;12.106;2023-04-03T06:47:42;6.00;99.90
45906;DHT22;31619;49.008;12.106;2023-04-03T06:50:10;6.10;99.90
45906;DHT22;31619;49.008;12.106;2023-04-03T06:52:37;6.20;99.90
45906;DHT22;31619;49.008;12.106;2023-04-03T06:55:03;6.10;99.90
45906;DHT22;31619;49.008;12.106;2023-04-03T06:57:29;6.20;99.90
45906;DHT22;31619;49.008;12.106;2023-04-03T06:59:55;6.30;99.90
45906;DHT22;31619;49.008;12.106;2023-04-03T07:02:21;6.30;99.90
45906;DHT22;31619;49.008;12.106;2023-04-03T07:04:47;6.40;99.90
45906;DHT22;31619;49.008;12.106;2023-04-03T07:07:12;6.50;99.90
45906;DHT22;31619;49.008;12.106;2023-04-03T07:09:38;6.70;99.90
45906;DHT22;31619;49.008;12.106;2023-04-03T07:12:03;6.70;99.90
45906;DHT22;31619;49.008;12.106;2023-04-03T07:14:29;6.80;99.90
45906;DHT22;31619;49.008;12.106;2023-04-03T07:16:55;6.80;99.90
45906;DHT22;31619;49.008;12.106;2023-04-03T07:19:20;6.80;99.90
45906;DHT22;31619;49.008;12.106;2023-04-03T07:21:46;6.80;99.90
45906;DHT22;31619;49.008;12.106;2023-04-03T07:24:12;6.80;99.90
45906;DHT22;31619;49.008;12.106;2023-04-03T07:26:39;6.90;99.90
45906;DHT22;31619;49.008;12.106;2023-04-03T07:29:04;6.90;99.90
45906;DHT22;31619;49.008;12.106;2023-04-03T07:31:30;6.90;99.90
45906;DHT22;31619;49.008;12.106;2023-04-03T07:33:55;7.10;99.90
45906;DHT22;31619;49.008;12.106;2023-04-03T07:36:22;7.10;99.90
45906;DHT22;31619;49.008;12.106;2023-04-03T07:38:48;7.10;99.90
45906;DHT22;31619;49.008;12.106;2023-04-03T07:41:16;7.10;99.90
45906;DHT22;31619;49.008;12.106;2023-04-03T07:43:43;7.00;99.90
45906;DHT22;31619;49.008;12.106;2023-04-03T07:46:09;7.10;99.90
45906;DHT22;31619;49.008;12.106;2023-04-03T07:48:34;7.00;99.90
45906;DHT22;31619;49.008;12.106;2023-04-03T07:51:01;7.10;99.90
45906;DHT22;31619;49.008;12.106;2023-04-03T07:53:28;7.20;99.90
45906;DHT22;31619;49.008;12.106;2023-04-03T07:55:53;7.30;99.90
45906;DHT22;31619;49.008;12.106;2023-04-03T07:58:22;7.60;99.90
45906;DHT22;31619;49.008;12.106;2023-04-03T08:00:48;7.80;99.90
45906;DHT22;31619;49.008;12.106;2023-04-03T08:03:14;7.90;99.90
45906;DHT22;31619;49.008;12.106;2023-04-03T08:05:44;7.90;99.90
45906;DHT22;31619;49.008;12.106;2023-04-03T08:08:12;8.00;99.90
45906;DHT22;31619;49.008;12.106;2023-04-03T08:10:38;8.20;99.70
45906;DHT22;31619;49.008;12.106;2023-04-03T08:13:04;8.40;98.60
45906;DHT22;31619;49.008;12.106;2023-04-03T08:15:31;8.50;97.20
45906;DHT22;31619;49.008;12.106;2023-04-03T08:17:57;8.80;97.10
45906;DHT22;31619;49.008;12.106;2023-04-03T08:20:22;9.20;96.60
45906;DHT22;31619;49.008;12.106;2023-04-03T08:22:48;9.50;95.00
45906;DHT22;31619;49.008;12.106;2023-04-03T08:25:14;9.60;94.20
45906;DHT22;31619;49.008;12.106;2023-04-03T08:27:39;10.10;93.10
45906;DHT22;31619;49.008;12.106;2023-04-03T08:30:06;10.30;91.80
45906;DHT22;31619;49.008;12.106;2023-04-03T08:32:33;10.30;90.90
45906;DHT22;31619;49.008;12.106;2023-04-03T08:34:59;10.50;90.70
45906;DHT22;31619;49.008;12.106;2023-04-03T08:37:25;10.70;90.00
45906;DHT22;31619;49.008;12.106;2023-04-03T08:39:51;10.80;88.60
45906;DHT22;31619;49.008;12.106;2023-04-03T08:42:30;10.90;87.90
45906;DHT22;31619;49.008;12.106;2023-04-03T08:45:12;11.00;87.20
45906;DHT22;31619;49.008;12.106;2023-04-03T08:47:50;10.90;85.60
45906;DHT22;31619;49.008;12.106;2023-04-03T08:50:20;10.70;85.70
45906;DHT22;31619;49.008;12.106;2023-04-03T08:52:51;10.70;86.20
45906;DHT22;31619;49.008;12.106;2023-04-03T08:55:27;10.70;84.30
45906;DHT22;31619;49.008;12.106;2023-04-03T08:58:05;10.50;84.00
45906;DHT22;31619;49.008;12.106;2023-04-03T09:00:59;10.30;80.90
45906;DHT22;31619;49.008;12.106;2023-04-03T09:03:30;10.00;82.40
45906;DHT22;31619;49.008;12.106;2023-04-03T09:06:02;10.40;79.30
45906;DHT22;31619;49.008;12.106;2023-04-03T09:08:36;10.80;76.20
45906;DHT22;31619;49.008;12.106;2023-04-03T09:16:48;16.60;62.40
45906;DHT22;31619;49.008;12.106;2023-04-03T09:24:47;21.50;46.10
45906;DHT22;31619;49.008;12.106;2023-04-03T09:27:15;21.90;44.40
45906;DHT22;31619;49.008;12.106;2023-04-03T09:29:44;22.60;43.20
45906;DHT22;31619;49.008;12.106;2023-04-03T09:32:28;23.50;41.60
45906;DHT22;31619;49.008;12.106;2023-04-03T09:34:59;24.30;40.00
45906;DHT22;31619;49.008;12.106;2023-04-03T09:40:02;25.70;37.30
45906;DHT22;31619;49.008;12.106;2023-04-03T09:42:30;26.00;36.70
45906;DHT22;31619;49.008;12.106;2023-04-03T09:45:18;26.10;36.50
45906;DHT22;31619;49.008;12.106;2023-04-03T09:47:47;26.30;36.20
45906;DHT22;31619;49.008;12.106;2023-04-03T09:52:46;24.40;35.90
45906;DHT22;31619;49.008;12.106;2023-04-03T09:55:21;24.70;35.70
45906;DHT22;31619;49.008;12.106;2023-04-03T09:57:53;25.10;34.70
45906;DHT22;31619;49.008;12.106;2023-04-03T10:00:25;25.60;34.80
45906;DHT22;31619;49.008;12.106;2023-04-03T10:02:54;25.60;34.50
45906;DHT22;31619;49.008;12.106;2023-04-03T10:05:41;24.30;35.10
45906;DHT22;31619;49.008;12.106;2023-04-03T10:10:36;24.60;35.80
45906;DHT22;31619;49.008;12.106;2023-04-03T10:13:15;23.40;36.00
45906;DHT22;31619;49.008;12.106;2023-04-03T10:15:46;23.80;36.90
45906;DHT22;31619;49.008;12.106;2023-04-03T10:20:49;26.00;36.10
45906;DHT22;31619;49.008;12.106;2023-04-03T10:24:30;27.00;33.80
45906;DHT22;31619;49.008;12.106;2023-04-03T10:26:43;27.60;33.50
45906;DHT22;31619;49.008;12.106;2023-04-03T10:34:45;27.20;31.50
45906;DHT22;31619;49.008;12.106;2023-04-03T10:37:45;24.10;32.50
45906;DHT22;31619;49.008;12.106;2023-04-03T10:40:34;21.80;35.20
45906;DHT22;31619;49.008;12.106;2023-04-03T10:43:17;22.50;35.70
45906;DHT22;31619;49.008;12.106;2023-04-03T10:46:07;23.10;34.60
45906;DHT22;31619;49.008;12.106;2023-04-03T10:51:29;19.10;36.70
45906;DHT22;31619;49.008;12.106;2023-04-03T10:54:22;17.90;37.00
45906;DHT22;31619;49.008;12.106;2023-04-03T10:56:56;16.50;38.20
45906;DHT22;31619;49.008;12.106;2023-04-03T10:59:28;18.20;38.70
45906;DHT22;31619;49.008;12.106;2023-04-03T11:01:59;20.80;38.30
45906;DHT22;31619;49.008;12.106;2023-04-03T11:04:28;21.30;34.60
45906;DHT22;31619;49.008;12.106;2023-04-03T11:07:18;20.80;34.70
45906;DHT22;31619;49.008;12.106;2023-04-03T11:09:50;19.50;35.40
45906;DHT22;31619;49.008;12.106;2023-04-03T11:12:23;20.80;36.70
45906;DHT22;31619;49.008;12.106;2023-04-03T11:14:51;23.40;36.10
45906;DHT22;31619;49.008;12.106;2023-04-03T11:19:59;26.80;31.80
45906;DHT22;31619;49.008;12.106;2023-04-03T11:22:36;26.40;31.20
45906;DHT22;31619;49.008;12.106;2023-04-03T11:27:37;26.60;30.10
45906;DHT22;31619;49.008;12.106;2023-04-03T11:30:07;25.60;31.60
45906;DHT22;31619;49.008;12.106;2023-04-03T11:32:48;23.20;33.20
45906;DHT22;31619;49.008;12.106;2023-04-03T11:35:17;21.00;35.10
45906;DHT22;31619;49.008;12.106;2023-04-03T11:37:50;20.70;34.90
45906;DHT22;31619;49.008;12.106;2023-04-03T11:42:52;19.40;35.90
45906;DHT22;31619;49.008;12.106;2023-04-03T11:45:27;17.80;36.10
45906;DHT22;31619;49.008;12.106;2023-04-03T11:47:58;17.20;37.40
45906;DHT22;31619;49.008;12.106;2023-04-03T12:01:05;21.10;33.80
45906;DHT22;31619;49.008;12.106;2023-04-03T12:13:42;21.40;34.80
45906;DHT22;31619;49.008;12.106;2023-04-03T12:21:15;23.30;34.40
45906;DHT22;31619;49.008;12.106;2023-04-03T12:26:41;26.10;31.20
45906;DHT22;31619;49.008;12.106;2023-04-03T12:29:23;25.90;29.90
45906;DHT22;31619;49.008;12.106;2023-04-03T12:46:17;26.40;31.70
45906;DHT22;31619;49.008;12.106;2023-04-03T12:51:22;27.30;30.90
45906;DHT22;31619;49.008;12.106;2023-04-03T12:54:02;27.30;30.80
45906;DHT22;31619;49.008;12.106;2023-04-03T12:56:32;26.80;29.80
45906;DHT22;31619;49.008;12.106;2023-04-03T12:59:21;27.20;30.80
45906;DHT22;31619;49.008;12.106;2023-04-03T13:01:54;26.90;30.10
45906;DHT22;31619;49.008;12.106;2023-04-03T13:04:20;26.50;30.80
45906;DHT22;31619;49.008;12.106;2023-04-03T13:06:46;26.80;29.70
45906;DHT22;31619;49.008;12.106;2023-04-03T13:09:29;27.60;31.10
45906;DHT22;31619;49.008;12.106;2023-04-03T13:12:02;28.10;30.40
45906;DHT22;31619;49.008;12.106;2023-04-03T13:14:29;27.30;30.80
45906;DHT22;31619;49.008;12.106;2023-04-03T13:17:03;25.90;30.90
45906;DHT22;31619;49.008;12.106;2023-04-03T13:19:29;24.70;31.90
45906;DHT22;31619;49.008;12.106;2023-04-03T13:22:02;24.40;33.00
45906;DHT22;31619;49.008;12.106;2023-04-03T13:24:30;24.20;30.70
45906;DHT22;31619;49.008;12.106;2023-04-03T13:26:58;24.20;33.10
45906;DHT22;31619;49.008;12.106;2023-04-03T13:29:36;24.90;33.30
45906;DHT22;31619;49.008;12.106;2023-04-03T13:32:04;25.90;31.40
45906;DHT22;31619;49.008;12.106;2023-04-03T13:34:38;25.90;31.00
45906;DHT22;31619;49.008;12.106;2023-04-03T13:37:04;25.80;30.60
45906;DHT22;31619;49.008;12.106;2023-04-03T13:39:32;26.70;30.00
45906;DHT22;31619;49.008;12.106;2023-04-03T13:42:00;27.60;31.10
45906;DHT22;31619;49.008;12.106;2023-04-03T13:44:37;30.20;30.00
45906;DHT22;31619;49.008;12.106;2023-04-03T13:49:42;30.60;27.70
45906;DHT22;31619;49.008;12.106;2023-04-03T13:52:30;28.10;28.30
45906;DHT22;31619;49.008;12.106;2023-04-03T13:55:35;25.40;29.20
45906;DHT22;31619;49.008;12.106;2023-04-03T14:00:53;27.80;30.00
45906;DHT22;31619;49.008;12.106;2023-04-03T14:06:05;31.50;27.60
45906;DHT22;31619;49.008;12.106;2023-04-03T14:08:32;30.40;27.90
45906;DHT22;31619;49.008;12.106;2023-04-03T14:10:57;27.90;28.80
45906;DHT22;31619;49.008;12.106;2023-04-03T14:13:23;25.70;30.10
45906;DHT22;31619;49.008;12.106;2023-04-03T14:15:49;23.20;30.80
45906;DHT22;31619;49.008;12.106;2023-04-03T14:18:18;23.20;32.50
45906;DHT22;31619;49.008;12.106;2023-04-03T14:20:44;26.30;31.50
45906;DHT22;31619;49.008;12.106;2023-04-03T14:23:10;30.40;29.30
45906;DHT22;31619;49.008;12.106;2023-04-03T14:25:37;31.50;27.60
45906;DHT22;31619;49.008;12.106;2023-04-03T14:28:14;29.90;27.50
45906;DHT22;31619;49.008;12.106;2023-04-03T14:30:40;27.20;28.70
45906;DHT22;31619;49.008;12.106;2023-04-03T14:33:06;24.90;29.90
45906;DHT22;31619;49.008;12.106;2023-04-03T14:35:32;25.90;31.30
45906;DHT22;31619;49.008;12.106;2023-04-03T14:37:58;29.50;30.30
45906;DHT22;31619;49.008;12.106;2023-04-03T14:40:26;33.30;27.60
45906;DHT22;31619;49.008;12.106;2023-04-03T14:42:52;35.60;27.00
45906;DHT22;31619;49.008;12.106;2023-04-03T14:45:21;37.00;26.00
45906;DHT22;31619;49.008;12.106;2023-04-03T14:47:51;36.10;25.60
45906;DHT22;31619;49.008;12.106;2023-04-03T14:50:20;36.40;25.70
45906;DHT22;31619;49.008;12.106;2023-04-03T14:52:47;35.40;25.50
45906;DHT22;31619;49.008;12.106;2023-04-03T14:55:16;32.00;25.80
45906;DHT22;31619;49.008;12.106;2023-04-03T14:57:42;28.60;27.50
45906;DHT22;31619;49.008;12.106;2023-04-03T15:00:16;25.60;28.80
45906;DHT22;31619;49.008;12.106;2023-04-03T15:02:42;22.90;30.20
45906;DHT22;31619;49.008;12.106;2023-04-03T15:05:09;20.80;32.00
45906;DHT22;31619;49.008;12.106;2023-04-03T15:07:38;21.60;33.20
45906;DHT22;31619;49.008;12.106;2023-04-03T15:12:41;28.10;29.20
45906;DHT22;31619;49.008;12.106;2023-04-03T15:15:07;30.70;28.00
45906;DHT22;31619;49.008;12.106;2023-04-03T15:17:33;32.70;27.10
45906;DHT22;31619;49.008;12.106;2023-04-03T15:20:00;33.90;26.60
45906;DHT22;31619;49.008;12.106;2023-04-03T15:22:26;33.90;25.80
45906;DHT22;31619;49.008;12.106;2023-04-03T15:24:51;34.40;26.00
45906;DHT22;31619;49.008;12.106;2023-04-03T15:27:17;33.60;26.10
45906;DHT22;31619;49.008;12.106;2023-04-03T15:29:43;30.70;26.60
45906;DHT22;31619;49.008;12.106;2023-04-03T15:32:10;27.40;27.40
45906;DHT22;31619;49.008;12.106;2023-04-03T15:34:36;24.70;29.10
45906;DHT22;31619;49.008;12.106;2023-04-03T15:37:02;23.00;30.50
45906;DHT22;31619;49.008;12.106;2023-04-03T15:39:28;23.70;30.80
45906;DHT22;31619;49.008;12.106;2023-04-03T15:41:54;25.80;30.00
45906;DHT22;31619;49.008;12.106;2023-04-03T15:44:21;28.10;28.60
45906;DHT22;31619;49.008;12.106;2023-04-03T15:46:47;29.20;27.70
45906;DHT22;31619;49.008;12.106;2023-04-03T15:49:18;30.40;27.30
45906;DHT22;31619;49.008;12.106;2023-04-03T15:51:44;31.10;26.70
45906;DHT22;31619;49.008;12.106;2023-04-03T15:54:10;28.80;26.80
45906;DHT22;31619;49.008;12.106;2023-04-03T15:56:35;26.50;28.50
45906;DHT22;31619;49.008;12.106;2023-04-03T15:59:01;25.70;29.20
45906;DHT22;31619;49.008;12.106;2023-04-03T16:01:27;26.60;29.60
45906;DHT22;31619;49.008;12.106;2023-04-03T16:03:53;27.70;28.50
45906;DHT22;31619;49.008;12.106;2023-04-03T16:06:19;28.40;28.00
45906;DHT22;31619;49.008;12.106;2023-04-03T16:08:46;28.50;27.50
45906;DHT22;31619;49.008;12.106;2023-04-03T16:11:12;28.10;27.60
45906;DHT22;31619;49.008;12.106;2023-04-03T16:13:38;27.10;28.00
45906;DHT22;31619;49.008;12.106;2023-04-03T16:16:04;25.30;28.60
45906;DHT22;31619;49.008;12.106;2023-04-03T16:18:30;23.30;30.10
45906;DHT22;31619;49.008;12.106;2023-04-03T16:20:56;22.00;31.00
45906;DHT22;31619;49.008;12.106;2023-04-03T16:23:23;21.50;32.10
45906;DHT22;31619;49.008;12.106;2023-04-03T16:25:49;21.30;31.90
45906;DHT22;31619;49.008;12.106;2023-04-03T16:28:16;21.00;32.00
45906;DHT22;31619;49.008;12.106;2023-04-03T16:30:43;20.00;32.50
45906;DHT22;31619;49.008;12.106;2023-04-03T16:33:11;18.60;36.20
45906;DHT22;31619;49.008;12.106;2023-04-03T16:35:37;17.00;36.80
45906;DHT22;31619;49.008;12.106;2023-04-03T16:38:03;15.60;38.10
45906;DHT22;31619;49.008;12.106;2023-04-03T16:40:29;14.30;40.80
45906;DHT22;31619;49.008;12.106;2023-04-03T16:42:54;13.30;44.00
45906;DHT22;31619;49.008;12.106;2023-04-03T16:45:20;12.70;45.00
45906;DHT22;31619;49.008;12.106;2023-04-03T16:47:46;12.00;44.30
45906;DHT22;31619;49.008;12.106;2023-04-03T16:50:12;11.50;44.80
45906;DHT22;31619;49.008;12.106;2023-04-03T16:52:37;11.10;47.60
45906;DHT22;31619;49.008;12.106;2023-04-03T16:55:03;10.60;46.50
45906;DHT22;31619;49.008;12.106;2023-04-03T16:57:29;10.20;47.40
45906;DHT22;31619;49.008;12.106;2023-04-03T16:59:55;9.90;48.60
45906;DHT22;31619;49.008;12.106;2023-04-03T17:02:21;9.60;49.90
45906;DHT22;31619;49.008;12.106;2023-04-03T17:04:50;9.30;49.90
45906;DHT22;31619;49.008;12.106;2023-04-03T17:07:17;9.00;51.80
45906;DHT22;31619;49.008;12.106;2023-04-03T17:09:42;8.80;52.60
45906;DHT22;31619;49.008;12.106;2023-04-03T17:12:08;8.60;51.90
45906;DHT22;31619;49.008;12.106;2023-04-03T17:14:34;8.40;51.20